createdAt,value
2017-09-21T00:00:40.355Z,1015.79
2017-09-21T00:01:49.903Z,1015.8
2017-09-21T00:02:58.778Z,1015.78
2017-09-21T00:04:07.768Z,1015.82
2017-09-21T00:05:16.642Z,1015.85
2017-09-21T00:06:25.892Z,1015.89
2017-09-21T00:07:35.148Z,1015.91
2017-09-21T00:08:44.412Z,1015.94
2017-09-21T00:09:53.332Z,1015.96
2017-09-21T00:11:02.175Z,1015.98
2017-09-21T00:12:11.335Z,1016.01
2017-09-21T00:13:20.172Z,1016.01
2017-09-21T00:14:29.008Z,1016.02
2017-09-21T00:15:37.839Z,1015.98
2017-09-21T00:16:46.674Z,1016.02
2017-09-21T00:17:55.510Z,1015.99
2017-09-21T00:19:04.349Z,1016
2017-09-21T00:20:13.181Z,1016.05
2017-09-21T00:21:22.015Z,1016.04
2017-09-21T00:22:30.853Z,1016.05
2017-09-21T00:23:39.692Z,1016.06
2017-09-21T00:24:48.530Z,1016.09
2017-09-21T00:25:57.365Z,1016.11
2017-09-21T00:27:06.201Z,1016.15
2017-09-21T00:28:15.032Z,1016.17
2017-09-21T00:29:23.872Z,1016.21
2017-09-21T00:30:32.708Z,1016.19
2017-09-21T00:31:41.871Z,1016.19
2017-09-21T00:32:50.706Z,1016.15
2017-09-21T00:33:59.539Z,1016.15
2017-09-21T00:35:08.378Z,1016.14
2017-09-21T00:36:17.214Z,1016.16
2017-09-21T00:37:26.051Z,1016.11
2017-09-21T00:38:34.889Z,1016.1
2017-09-21T00:39:43.730Z,1016.09
2017-09-21T00:40:52.562Z,1016.11
2017-09-21T00:42:01.404Z,1016.07
2017-09-21T00:43:10.250Z,1016.04
2017-09-21T00:44:19.082Z,1016.06
2017-09-21T00:45:27.917Z,1016.08
2017-09-21T00:46:36.756Z,1016.08
2017-09-21T00:47:45.591Z,1016.08
2017-09-21T00:48:54.743Z,1016.09
2017-09-21T00:50:03.583Z,1016.13
2017-09-21T00:51:12.419Z,1016.15
2017-09-21T00:52:21.261Z,1016.14
2017-09-21T00:53:30.094Z,1016.16
2017-09-21T00:54:38.929Z,1016.15
2017-09-21T00:55:47.762Z,1016.13
2017-09-21T00:56:56.598Z,1016.15
2017-09-21T00:58:05.436Z,1016.17
2017-09-21T00:59:14.272Z,1016.14
2017-09-21T01:00:23.110Z,1016.19
2017-09-21T01:01:31.941Z,1016.18
2017-09-21T01:02:40.782Z,1016.22
2017-09-21T01:03:49.618Z,1016.18
2017-09-21T01:04:58.453Z,1016.22
2017-09-21T01:06:07.614Z,1016.23
2017-09-21T01:07:16.449Z,1016.23
2017-09-21T01:08:25.610Z,1016.24
2017-09-21T01:09:34.456Z,1016.24
2017-09-21T01:10:43.293Z,1016.22
2017-09-21T01:11:52.131Z,1016.25
2017-09-21T01:13:00.962Z,1016.27
2017-09-21T01:14:09.798Z,1016.26
2017-09-21T01:15:18.633Z,1016.26
2017-09-21T01:16:27.469Z,1016.28
2017-09-21T01:17:36.303Z,1016.32
2017-09-21T01:18:45.149Z,1016.32
2017-09-21T01:19:53.982Z,1016.3
2017-09-21T01:21:02.818Z,1016.3
2017-09-21T01:22:11.650Z,1016.32
2017-09-21T01:23:20.484Z,1016.35
2017-09-21T01:24:29.322Z,1016.29
2017-09-21T01:25:38.160Z,1016.31
2017-09-21T01:26:46.993Z,1016.33
2017-09-21T01:27:55.832Z,1016.31
2017-09-21T01:29:04.665Z,1016.35
2017-09-21T01:30:13.499Z,1016.33
2017-09-21T01:31:22.661Z,1016.35
2017-09-21T01:32:31.500Z,1016.33
2017-09-21T01:33:40.330Z,1016.35
2017-09-21T01:34:49.165Z,1016.33
2017-09-21T01:35:58.330Z,1016.3
2017-09-21T01:37:07.169Z,1016.31
2017-09-21T01:38:16.005Z,1016.31
2017-09-21T01:39:24.841Z,1016.35
2017-09-21T01:40:33.674Z,1016.35
2017-09-21T01:41:42.513Z,1016.27
2017-09-21T01:42:51.351Z,1016.29
2017-09-21T01:44:00.185Z,1016.27
2017-09-21T01:45:09.024Z,1016.3
2017-09-21T01:46:17.852Z,1016.29
2017-09-21T01:47:26.693Z,1016.35
2017-09-21T01:48:35.522Z,1016.32
2017-09-21T01:49:44.352Z,1016.34
2017-09-21T01:50:53.192Z,1016.32
2017-09-21T01:52:02.026Z,1016.32
2017-09-21T01:53:11.185Z,1016.36
2017-09-21T01:54:20.023Z,1016.35
2017-09-21T01:55:29.183Z,1016.36
2017-09-21T01:56:38.013Z,1016.34
2017-09-21T01:57:46.850Z,1016.35
2017-09-21T01:58:55.687Z,1016.32
2017-09-21T02:00:04.524Z,1016.38
2017-09-21T02:01:13.358Z,1016.29
2017-09-21T02:02:22.193Z,1016.32
2017-09-21T02:03:31.034Z,1016.31
2017-09-21T02:04:39.870Z,1016.3
2017-09-21T02:05:48.701Z,1016.26
2017-09-21T02:06:57.537Z,1016.19
2017-09-21T02:08:06.375Z,1016.21
2017-09-21T02:09:15.533Z,1016.21
2017-09-21T02:10:24.369Z,1016.15
2017-09-21T02:11:33.205Z,1016.15
2017-09-21T02:12:42.368Z,1016.15
2017-09-21T02:13:51.199Z,1016.15
2017-09-21T02:15:00.034Z,1016.13
2017-09-21T02:16:08.876Z,1016.17
2017-09-21T02:17:18.033Z,1016.14
2017-09-21T02:18:26.863Z,1016.19
2017-09-21T02:19:35.697Z,1016.2
2017-09-21T02:20:44.528Z,1016.23
2017-09-21T02:21:53.364Z,1016.19
2017-09-21T02:23:02.203Z,1016.18
2017-09-21T02:24:11.034Z,1016.17
2017-09-21T02:25:19.866Z,1016.17
2017-09-21T02:26:28.699Z,1016.13
2017-09-21T02:27:37.533Z,1016.09
2017-09-21T02:28:46.373Z,1016.12
2017-09-21T02:29:55.213Z,1016.14
2017-09-21T02:31:04.374Z,1016.15
2017-09-21T02:32:13.214Z,1016.13
2017-09-21T02:33:22.052Z,1016.18
2017-09-21T02:34:30.884Z,1016.1
2017-09-21T02:35:39.719Z,1016.12
2017-09-21T02:36:48.878Z,1016.13
2017-09-21T02:37:57.708Z,1016.1
2017-09-21T02:39:06.543Z,1016.09
2017-09-21T02:40:15.380Z,1016.05
2017-09-21T02:41:24.219Z,1016.09
2017-09-21T02:42:33.048Z,1016.08
2017-09-21T02:43:41.882Z,1016.06
2017-09-21T02:44:50.721Z,1016.08
2017-09-21T02:45:59.555Z,1016.05
2017-09-21T02:47:08.390Z,1016.03
2017-09-21T02:48:17.226Z,1016.04
2017-09-21T02:49:26.062Z,1016.09
2017-09-21T02:50:34.895Z,1016.13
2017-09-21T02:51:43.723Z,1016.1
2017-09-21T02:52:52.560Z,1016.12
2017-09-21T02:54:01.729Z,1016.13
2017-09-21T02:55:10.570Z,1016.1
2017-09-21T02:56:19.398Z,1016.12
2017-09-21T02:57:28.234Z,1016.08
2017-09-21T02:58:37.088Z,1016.09
2017-09-21T02:59:45.923Z,1016.09
2017-09-21T03:00:54.758Z,1016.09
2017-09-21T03:02:03.596Z,1016.08
2017-09-21T03:03:12.751Z,1016.06
2017-09-21T03:04:21.586Z,1015.98
2017-09-21T03:05:30.425Z,1015.94
2017-09-21T03:06:39.258Z,1015.97
2017-09-21T03:07:48.093Z,1015.94
2017-09-21T03:08:56.927Z,1015.94
2017-09-21T03:10:05.760Z,1015.93
2017-09-21T03:11:14.597Z,1015.89
2017-09-21T03:12:23.430Z,1015.94
2017-09-21T03:13:32.268Z,1015.9
2017-09-21T03:14:41.101Z,1015.9
2017-09-21T03:15:49.941Z,1015.91
2017-09-21T03:16:58.776Z,1015.95
2017-09-21T03:18:07.609Z,1015.91
2017-09-21T03:19:16.444Z,1015.95
2017-09-21T03:20:25.277Z,1015.96
2017-09-21T03:21:34.119Z,1015.97
2017-09-21T03:22:42.955Z,1015.95
2017-09-21T03:23:51.790Z,1015.97
2017-09-21T03:25:00.621Z,1015.98
2017-09-21T03:26:09.463Z,1015.95
2017-09-21T03:27:18.291Z,1015.98
2017-09-21T03:28:27.128Z,1015.96
2017-09-21T03:29:35.964Z,1015.97
2017-09-21T03:30:44.797Z,1015.97
2017-09-21T03:31:53.628Z,1015.92
2017-09-21T03:33:02.793Z,1015.9
2017-09-21T03:34:11.626Z,1015.89
2017-09-21T03:35:20.465Z,1015.9
2017-09-21T03:36:29.304Z,1015.9
2017-09-21T03:37:38.137Z,1015.88
2017-09-21T03:38:46.965Z,1015.86
2017-09-21T03:39:55.804Z,1015.86
2017-09-21T03:41:04.635Z,1015.83
2017-09-21T03:42:13.477Z,1015.8
2017-09-21T03:43:22.313Z,1015.72
2017-09-21T03:44:31.143Z,1015.75
2017-09-21T03:45:39.984Z,1015.78
2017-09-21T03:46:49.141Z,1015.82
2017-09-21T03:47:57.976Z,1015.8
2017-09-21T03:49:07.135Z,1015.81
2017-09-21T03:50:15.969Z,1015.81
2017-09-21T03:51:24.805Z,1015.87
2017-09-21T03:52:33.639Z,1015.88
2017-09-21T03:53:42.481Z,1015.87
2017-09-21T03:54:51.317Z,1015.87
2017-09-21T03:56:00.151Z,1015.88
2017-09-21T03:57:08.982Z,1015.87
2017-09-21T03:58:17.820Z,1015.86
2017-09-21T03:59:26.657Z,1015.89
2017-09-21T04:00:35.491Z,1015.94
2017-09-21T04:01:44.642Z,1015.94
2017-09-21T04:02:53.477Z,1015.97
2017-09-21T04:04:02.314Z,1015.93
2017-09-21T04:05:11.153Z,1016.01
2017-09-21T04:06:20.305Z,1015.99
2017-09-21T04:07:29.140Z,1016
2017-09-21T04:08:37.975Z,1016.06
2017-09-21T04:09:46.823Z,1016.05
2017-09-21T04:10:55.658Z,1016.05
2017-09-21T04:12:04.501Z,1016.08
2017-09-21T04:13:13.337Z,1016.03
2017-09-21T04:14:22.170Z,1016.02
2017-09-21T04:15:31.007Z,1015.98
2017-09-21T04:16:39.842Z,1015.96
2017-09-21T04:17:48.677Z,1015.96
2017-09-21T04:18:57.511Z,1015.95
2017-09-21T04:20:06.349Z,1015.95
2017-09-21T04:21:15.517Z,1015.99
2017-09-21T04:22:24.352Z,1015.96
2017-09-21T04:23:33.187Z,1015.98
2017-09-21T04:24:42.018Z,1015.97
2017-09-21T04:25:51.181Z,1016.04
2017-09-21T04:27:00.018Z,1016.03
2017-09-21T04:28:08.854Z,1016.04
2017-09-21T04:29:17.686Z,1016.02
2017-09-21T04:30:26.520Z,1016.03
2017-09-21T04:31:35.357Z,1016.03
2017-09-21T04:32:44.196Z,1016.06
2017-09-21T04:33:53.037Z,1016.03
2017-09-21T04:35:01.885Z,1016.05
2017-09-21T04:36:10.701Z,1016.05
2017-09-21T04:37:19.535Z,1016.08
2017-09-21T04:38:28.374Z,1016.02
2017-09-21T04:39:37.205Z,1016.03
2017-09-21T04:40:46.367Z,1015.99
2017-09-21T04:41:55.201Z,1016.07
2017-09-21T04:43:04.036Z,1016.11
2017-09-21T04:44:12.876Z,1016.09
2017-09-21T04:45:21.706Z,1016.13
2017-09-21T04:46:30.543Z,1016.14
2017-09-21T04:47:39.378Z,1016.15
2017-09-21T04:48:48.214Z,1016.15
2017-09-21T04:49:57.044Z,1016.11
2017-09-21T04:51:05.880Z,1016.09
2017-09-21T04:52:14.713Z,1016.1
2017-09-21T04:53:23.546Z,1016.11
2017-09-21T04:54:32.382Z,1016.1
2017-09-21T04:55:41.220Z,1016.12
2017-09-21T04:56:50.060Z,1016.15
2017-09-21T04:57:58.891Z,1016.09
2017-09-21T04:59:08.056Z,1016.1
2017-09-21T05:00:16.891Z,1016.09
2017-09-21T05:01:25.728Z,1016.08
2017-09-21T05:02:34.562Z,1016.1
2017-09-21T05:03:43.392Z,1016.08
2017-09-21T05:04:52.233Z,1016.1
2017-09-21T05:06:01.071Z,1016.13
2017-09-21T05:07:09.906Z,1016.19
2017-09-21T05:08:18.744Z,1016.19
2017-09-21T05:09:27.581Z,1016.2
2017-09-21T05:10:36.412Z,1016.22
2017-09-21T05:11:45.248Z,1016.22
2017-09-21T05:12:54.086Z,1016.26
2017-09-21T05:14:03.241Z,1016.24
2017-09-21T05:15:12.079Z,1016.18
2017-09-21T05:16:20.913Z,1016.18
2017-09-21T05:17:30.074Z,1016.11
2017-09-21T05:18:38.909Z,1016.1
2017-09-21T05:19:47.743Z,1016.16
2017-09-21T05:20:56.580Z,1016.14
2017-09-21T05:22:05.413Z,1016.18
2017-09-21T05:23:14.246Z,1016.18
2017-09-21T05:24:23.079Z,1016.16
2017-09-21T05:25:31.919Z,1016.12
2017-09-21T05:26:40.754Z,1016.12
2017-09-21T05:27:49.589Z,1016.11
2017-09-21T05:28:58.427Z,1016.15
2017-09-21T05:30:07.258Z,1016.11
2017-09-21T05:31:16.096Z,1016.13
2017-09-21T05:32:24.929Z,1016.11
2017-09-21T05:33:33.766Z,1016.07
2017-09-21T05:34:42.608Z,1016.1
2017-09-21T05:35:51.762Z,1016.09
2017-09-21T05:37:00.600Z,1016.08
2017-09-21T05:38:09.435Z,1016.06
2017-09-21T05:39:18.270Z,1016.06
2017-09-21T05:40:27.106Z,1016.12
2017-09-21T05:41:35.941Z,1016.1
2017-09-21T05:42:45.097Z,1016.13
2017-09-21T05:43:53.937Z,1016.13
2017-09-21T05:45:02.770Z,1016.15
2017-09-21T05:46:11.604Z,1016.11
2017-09-21T05:47:20.438Z,1016.15
2017-09-21T05:48:29.272Z,1016.17
2017-09-21T05:49:39.074Z,1016.16
2017-09-21T05:50:47.910Z,1016.19
2017-09-21T05:51:56.748Z,1016.18
2017-09-21T05:53:05.588Z,1016.17
2017-09-21T05:54:14.419Z,1016.15
2017-09-21T05:55:23.575Z,1016.16
2017-09-21T05:56:32.743Z,1016.14
2017-09-21T05:57:41.576Z,1016.14
2017-09-21T05:58:50.410Z,1016.15
2017-09-21T05:59:59.245Z,1016.17
2017-09-21T06:01:08.080Z,1016.18
2017-09-21T06:02:16.917Z,1016.19
2017-09-21T06:03:26.080Z,1016.2
2017-09-21T06:04:34.916Z,1016.22
2017-09-21T06:05:43.745Z,1016.18
2017-09-21T06:06:52.583Z,1016.17
2017-09-21T06:08:01.415Z,1016.14
2017-09-21T06:09:10.254Z,1016.22
2017-09-21T06:10:19.091Z,1016.15
2017-09-21T06:11:28.186Z,1016.16
2017-09-21T06:12:37.704Z,1016.2
2017-09-21T06:13:46.543Z,1016.19
2017-09-21T06:14:55.381Z,1016.23
2017-09-21T06:16:04.218Z,1016.25
2017-09-21T06:17:13.056Z,1016.25
2017-09-21T06:18:22.209Z,1016.22
2017-09-21T06:19:31.044Z,1016.26
2017-09-21T06:20:40.208Z,1016.23
2017-09-21T06:21:49.040Z,1016.24
2017-09-21T06:22:57.875Z,1016.23
2017-09-21T06:24:06.710Z,1016.21
2017-09-21T06:25:15.544Z,1016.18
2017-09-21T06:26:24.386Z,1016.19
2017-09-21T06:27:33.219Z,1016.22
2017-09-21T06:28:42.055Z,1016.21
2017-09-21T06:29:50.891Z,1016.21
2017-09-21T06:30:59.735Z,1016.17
2017-09-21T06:32:08.570Z,1016.19
2017-09-21T06:33:17.404Z,1016.21
2017-09-21T06:34:26.267Z,1016.21
2017-09-21T06:35:35.102Z,1016.19
2017-09-21T06:36:43.935Z,1016.18
2017-09-21T06:37:53.104Z,1016.24
2017-09-21T06:39:01.940Z,1016.27
2017-09-21T06:40:10.767Z,1016.33
2017-09-21T06:41:19.740Z,1016.31
2017-09-21T06:42:28.987Z,1016.32
2017-09-21T06:43:37.822Z,1016.35
2017-09-21T06:44:46.715Z,1016.36
2017-09-21T06:45:55.585Z,1016.42
2017-09-21T06:47:04.419Z,1016.43
2017-09-21T06:48:13.256Z,1016.46
2017-09-21T06:49:22.474Z,1016.42
2017-09-21T06:50:32.117Z,1016.42
2017-09-21T06:51:40.985Z,1016.35
2017-09-21T06:52:50.069Z,1016.37
2017-09-21T06:53:59.393Z,1016.34
2017-09-21T06:55:08.249Z,1016.34
2017-09-21T06:56:17.154Z,1016.36
2017-09-21T06:57:26.075Z,1016.36
2017-09-21T06:58:34.914Z,1016.36
2017-09-21T06:59:43.748Z,1016.34
2017-09-21T07:00:52.581Z,1016.39
2017-09-21T07:02:01.567Z,1016.41
2017-09-21T07:03:10.402Z,1016.38
2017-09-21T07:04:19.236Z,1016.41
2017-09-21T07:05:28.159Z,1016.41
2017-09-21T07:06:37.009Z,1016.43
2017-09-21T07:07:46.386Z,1016.42
2017-09-21T07:08:55.221Z,1016.42
2017-09-21T07:10:04.069Z,1016.4
2017-09-21T07:11:13.224Z,1016.41
2017-09-21T07:12:22.058Z,1016.41
2017-09-21T07:13:30.891Z,1016.4
2017-09-21T07:14:39.734Z,1016.44
2017-09-21T07:15:48.571Z,1016.43
2017-09-21T07:16:57.404Z,1016.46
2017-09-21T07:18:06.236Z,1016.5
2017-09-21T07:19:15.069Z,1016.52
2017-09-21T07:20:24.242Z,1016.49
2017-09-21T07:21:33.077Z,1016.48
2017-09-21T07:22:42.069Z,1016.52
2017-09-21T07:23:50.902Z,1016.5
2017-09-21T07:24:59.735Z,1016.49
2017-09-21T07:26:08.568Z,1016.5
2017-09-21T07:27:17.505Z,1016.48
2017-09-21T07:28:26.343Z,1016.51
2017-09-21T07:29:35.179Z,1016.48
2017-09-21T07:30:44.776Z,1016.46
2017-09-21T07:31:53.610Z,1016.52
2017-09-21T07:33:02.445Z,1016.5
2017-09-21T07:34:11.286Z,1016.53
2017-09-21T07:35:20.118Z,1016.51
2017-09-21T07:36:28.957Z,1016.53
2017-09-21T07:37:37.982Z,1016.51
2017-09-21T07:38:46.823Z,1016.53
2017-09-21T07:39:56.021Z,1016.48
2017-09-21T07:41:04.851Z,1016.49
2017-09-21T07:42:13.686Z,1016.51
2017-09-21T07:43:22.524Z,1016.5
2017-09-21T07:44:31.362Z,1016.51
2017-09-21T07:45:40.203Z,1016.54
2017-09-21T07:46:49.041Z,1016.57
2017-09-21T07:47:57.877Z,1016.54
2017-09-21T07:49:06.716Z,1016.55
2017-09-21T07:50:15.915Z,1016.59
2017-09-21T07:51:24.766Z,1016.57
2017-09-21T07:52:33.659Z,1016.58
2017-09-21T07:53:43.263Z,1016.56
2017-09-21T07:54:52.482Z,1016.62
2017-09-21T07:56:01.420Z,1016.59
2017-09-21T07:57:10.765Z,1016.57
2017-09-21T07:58:19.602Z,1016.61
2017-09-21T07:59:28.453Z,1016.58
2017-09-21T08:00:37.272Z,1016.58
2017-09-21T08:01:46.102Z,1016.63
2017-09-21T08:02:55.266Z,1016.57
2017-09-21T08:04:04.108Z,1016.54
2017-09-21T08:05:12.942Z,1016.52
2017-09-21T08:06:21.777Z,1016.49
2017-09-21T08:07:30.616Z,1016.53
2017-09-21T08:08:39.449Z,1016.49
2017-09-21T08:09:48.287Z,1016.51
2017-09-21T08:10:57.140Z,1016.53
2017-09-21T08:12:05.978Z,1016.48
2017-09-21T08:13:14.813Z,1016.58
2017-09-21T08:14:23.663Z,1016.58
2017-09-21T08:15:32.823Z,1016.54
2017-09-21T08:16:41.661Z,1016.57
2017-09-21T08:17:50.496Z,1016.56
2017-09-21T08:18:59.329Z,1016.55
2017-09-21T08:20:08.161Z,1016.56
2017-09-21T08:21:16.998Z,1016.57
2017-09-21T08:22:25.834Z,1016.58
2017-09-21T08:23:34.698Z,1016.55
2017-09-21T08:24:43.700Z,1016.51
2017-09-21T08:25:52.810Z,1016.57
2017-09-21T08:27:01.818Z,1016.54
2017-09-21T08:28:10.821Z,1016.55
2017-09-21T08:29:20.208Z,1016.58
2017-09-21T08:30:29.133Z,1016.59
2017-09-21T08:31:37.969Z,1016.61
2017-09-21T08:32:46.806Z,1016.6
2017-09-21T08:33:55.645Z,1016.61
2017-09-21T08:35:04.484Z,1016.61
2017-09-21T08:36:13.322Z,1016.6
2017-09-21T08:37:22.155Z,1016.58
2017-09-21T08:38:30.991Z,1016.59
2017-09-21T08:39:39.832Z,1016.57
2017-09-21T08:40:48.666Z,1016.57
2017-09-21T08:41:57.835Z,1016.53
2017-09-21T08:43:06.669Z,1016.56
2017-09-21T08:44:15.507Z,1016.51
2017-09-21T08:45:24.672Z,1016.52
2017-09-21T08:46:33.508Z,1016.53
2017-09-21T08:47:42.341Z,1016.49
2017-09-21T08:48:51.180Z,1016.52
2017-09-21T08:50:00.014Z,1016.51
2017-09-21T08:51:08.848Z,1016.55
2017-09-21T08:52:17.688Z,1016.55
2017-09-21T08:53:26.530Z,1016.57
2017-09-21T08:54:35.685Z,1016.62
2017-09-21T08:55:44.524Z,1016.59
2017-09-21T08:56:53.357Z,1016.54
2017-09-21T08:58:02.198Z,1016.54
2017-09-21T08:59:11.038Z,1016.59
2017-09-21T09:00:20.199Z,1016.57
2017-09-21T09:01:29.036Z,1016.5
2017-09-21T09:02:37.874Z,1016.52
2017-09-21T09:03:46.709Z,1016.5
2017-09-21T09:04:55.549Z,1016.56
2017-09-21T09:06:04.387Z,1016.54
2017-09-21T09:07:13.546Z,1016.55
2017-09-21T09:08:22.375Z,1016.52
2017-09-21T09:09:31.214Z,1016.51
2017-09-21T09:10:40.053Z,1016.5
2017-09-21T09:11:49.214Z,1016.49
2017-09-21T09:12:58.378Z,1016.52
2017-09-21T09:14:07.211Z,1016.52
2017-09-21T09:15:16.380Z,1016.51
2017-09-21T09:16:25.220Z,1016.52
2017-09-21T09:17:34.063Z,1016.49
2017-09-21T09:18:42.901Z,1016.57
2017-09-21T09:19:51.739Z,1016.5
2017-09-21T09:21:00.577Z,1016.55
2017-09-21T09:22:09.416Z,1016.57
2017-09-21T09:23:18.252Z,1016.55
2017-09-21T09:24:27.085Z,1016.54
2017-09-21T09:25:35.921Z,1016.56
2017-09-21T09:26:44.761Z,1016.54
2017-09-21T09:27:53.922Z,1016.54
2017-09-21T09:29:02.757Z,1016.51
2017-09-21T09:30:11.591Z,1016.52
2017-09-21T09:31:20.427Z,1016.51
2017-09-21T09:32:29.265Z,1016.52
2017-09-21T09:33:38.099Z,1016.51
2017-09-21T09:34:46.940Z,1016.51
2017-09-21T09:35:55.774Z,1016.51
2017-09-21T09:37:04.611Z,1016.56
2017-09-21T09:38:13.444Z,1016.53
2017-09-21T09:39:22.287Z,1016.5
2017-09-21T09:40:31.125Z,1016.47
2017-09-21T09:41:39.960Z,1016.44
2017-09-21T09:42:48.801Z,1016.42
2017-09-21T09:43:58.169Z,1016.4
2017-09-21T09:45:07.032Z,1016.37
2017-09-21T09:46:15.868Z,1016.4
2017-09-21T09:47:24.711Z,1016.44
2017-09-21T09:48:33.540Z,1016.39
2017-09-21T09:49:42.385Z,1016.38
2017-09-21T09:50:51.746Z,1016.41
2017-09-21T09:52:00.773Z,1016.34
2017-09-21T09:53:09.762Z,1016.37
2017-09-21T09:54:18.622Z,1016.4
2017-09-21T09:55:27.571Z,1016.36
2017-09-21T09:56:36.538Z,1016.32
2017-09-21T09:57:45.780Z,1016.29
2017-09-21T09:58:54.790Z,1016.3
2017-09-21T10:00:03.823Z,1016.33
2017-09-21T10:01:13.058Z,1016.28
2017-09-21T10:02:22.426Z,1016.29
2017-09-21T10:03:31.423Z,1016.28
2017-09-21T10:04:40.549Z,1016.27
2017-09-21T10:05:49.441Z,1016.29
2017-09-21T10:06:58.386Z,1016.34
2017-09-21T10:08:07.599Z,1016.32
2017-09-21T10:09:17.163Z,1016.34
2017-09-21T10:10:26.041Z,1016.31
2017-09-21T10:11:34.881Z,1016.35
2017-09-21T10:12:44.130Z,1016.31
2017-09-21T10:13:53.425Z,1016.3
2017-09-21T10:15:02.313Z,1016.27
2017-09-21T10:16:11.529Z,1016.28
2017-09-21T10:17:20.369Z,1016.29
2017-09-21T10:18:29.206Z,1016.3
2017-09-21T10:19:38.053Z,1016.28
2017-09-21T10:20:46.886Z,1016.24
2017-09-21T10:21:55.725Z,1016.3
2017-09-21T10:23:04.568Z,1016.26
2017-09-21T10:24:13.405Z,1016.27
2017-09-21T10:25:22.606Z,1016.3
2017-09-21T10:26:31.445Z,1016.24
2017-09-21T10:27:40.283Z,1016.24
2017-09-21T10:28:49.120Z,1016.31
2017-09-21T10:29:57.961Z,1016.25
2017-09-21T10:31:06.800Z,1016.22
2017-09-21T10:32:15.638Z,1016.21
2017-09-21T10:33:24.476Z,1016.24
2017-09-21T10:34:33.309Z,1016.21
2017-09-21T10:35:42.153Z,1016.21
2017-09-21T10:36:50.993Z,1016.24
2017-09-21T10:37:59.828Z,1016.25
2017-09-21T10:39:08.671Z,1016.22
2017-09-21T10:40:17.511Z,1016.24
2017-09-21T10:41:26.358Z,1016.23
2017-09-21T10:42:35.189Z,1016.19
2017-09-21T10:43:44.351Z,1016.21
2017-09-21T10:44:53.190Z,1016.19
2017-09-21T10:46:02.027Z,1016.17
2017-09-21T10:47:10.867Z,1016.15
2017-09-21T10:48:19.699Z,1016.15
2017-09-21T10:49:28.537Z,1016.18
2017-09-21T10:50:37.380Z,1016.15
2017-09-21T10:51:46.213Z,1016.18
2017-09-21T10:52:55.052Z,1016.16
2017-09-21T10:54:03.892Z,1016.17
2017-09-21T10:55:12.727Z,1016.18
2017-09-21T10:56:21.570Z,1016.18
2017-09-21T10:57:30.410Z,1016.21
2017-09-21T10:58:39.245Z,1016.21
2017-09-21T10:59:48.077Z,1016.24
2017-09-21T11:00:56.919Z,1016.22
2017-09-21T11:02:05.751Z,1016.22
2017-09-21T11:03:14.595Z,1016.21
2017-09-21T11:04:23.433Z,1016.24
2017-09-21T11:05:32.271Z,1016.19
2017-09-21T11:06:41.111Z,1016.2
2017-09-21T11:07:49.952Z,1016.2
2017-09-21T11:08:58.790Z,1016.21
2017-09-21T11:10:07.632Z,1016.19
2017-09-21T11:11:16.470Z,1016.16
2017-09-21T11:12:25.313Z,1016.14
2017-09-21T11:13:34.146Z,1016.17
2017-09-21T11:14:42.991Z,1016.17
2017-09-21T11:15:51.822Z,1016.21
2017-09-21T11:17:00.666Z,1016.15
2017-09-21T11:18:09.501Z,1016.19
2017-09-21T11:19:18.339Z,1016.22
2017-09-21T11:20:27.176Z,1016.16
2017-09-21T11:21:36.017Z,1016.18
2017-09-21T11:22:44.857Z,1016.17
2017-09-21T11:23:53.694Z,1016.16
2017-09-21T11:25:02.535Z,1016.15
2017-09-21T11:26:11.373Z,1016.16
2017-09-21T11:27:20.211Z,1016.09
2017-09-21T11:28:29.053Z,1016.14
2017-09-21T11:29:37.889Z,1016.13
2017-09-21T11:30:46.727Z,1016.12
2017-09-21T11:31:55.566Z,1016.1
2017-09-21T11:33:04.409Z,1016.11
2017-09-21T11:34:13.577Z,1016.09
2017-09-21T11:35:22.414Z,1016.14
2017-09-21T11:36:31.277Z,1016.1
2017-09-21T11:37:40.089Z,1016.13
2017-09-21T11:38:48.928Z,1016.16
2017-09-21T11:39:57.766Z,1016.17
2017-09-21T11:41:06.608Z,1016.12
2017-09-21T11:42:15.444Z,1016.17
2017-09-21T11:43:24.280Z,1016.16
2017-09-21T11:44:33.173Z,1016.16
2017-09-21T11:45:42.011Z,1016.14
2017-09-21T11:46:50.929Z,1016.15
2017-09-21T11:47:59.776Z,1016.15
2017-09-21T11:49:08.617Z,1016.14
2017-09-21T11:50:17.453Z,1016.12
2017-09-21T11:51:26.290Z,1016.12
2017-09-21T11:52:35.132Z,1016.12
2017-09-21T11:53:43.971Z,1016.14
2017-09-21T11:54:52.815Z,1016.15
2017-09-21T11:56:02.605Z,1016.15
2017-09-21T11:57:11.574Z,1016.13
2017-09-21T11:58:20.853Z,1016.11
2017-09-21T11:59:30.015Z,1016.19
2017-09-21T12:00:39.948Z,1016.16
2017-09-21T12:01:49.180Z,1016.13
2017-09-21T12:02:59.250Z,1016.13
2017-09-21T12:04:08.978Z,1016.13
2017-09-21T12:05:17.835Z,1016.11
2017-09-21T12:06:27.432Z,1016.1
2017-09-21T12:07:36.332Z,1016.13
2017-09-21T12:08:45.176Z,1016.1
2017-09-21T12:09:54.012Z,1016.13
2017-09-21T12:11:02.855Z,1016.08
2017-09-21T12:12:11.699Z,1016.09
2017-09-21T12:13:20.605Z,1016.09
2017-09-21T12:14:29.443Z,1016.07
2017-09-21T12:15:38.283Z,1016.06
2017-09-21T12:16:47.121Z,1016.11
2017-09-21T12:17:55.958Z,1016.1
2017-09-21T12:19:04.804Z,1016.07
2017-09-21T12:20:13.640Z,1016.07
2017-09-21T12:21:22.480Z,1016.07
2017-09-21T12:22:31.322Z,1016.09
2017-09-21T12:23:40.158Z,1016.09
2017-09-21T12:24:48.998Z,1016.09
2017-09-21T12:25:57.835Z,1016.09
2017-09-21T12:27:06.675Z,1016.1
2017-09-21T12:28:15.512Z,1016.07
2017-09-21T12:29:24.354Z,1016.12
2017-09-21T12:30:33.185Z,1016.08
2017-09-21T12:31:42.026Z,1016.07
2017-09-21T12:32:50.866Z,1016.08
2017-09-21T12:33:59.707Z,1016.08
2017-09-21T12:35:08.539Z,1016.06
2017-09-21T12:36:17.380Z,1016.11
2017-09-21T12:37:26.218Z,1016.05
2017-09-21T12:38:35.059Z,1016.09
2017-09-21T12:39:43.897Z,1016.06
2017-09-21T12:40:52.738Z,1016.1
2017-09-21T12:42:01.570Z,1016.09
2017-09-21T12:43:10.403Z,1016.06
2017-09-21T12:44:19.246Z,1016.05
2017-09-21T12:45:28.083Z,1016.04
2017-09-21T12:46:36.922Z,1016.05
2017-09-21T12:47:45.762Z,1016.07
2017-09-21T12:48:54.597Z,1016.09
2017-09-21T12:50:03.435Z,1016.06
2017-09-21T12:51:12.274Z,1016.03
2017-09-21T12:52:21.113Z,1016.06
2017-09-21T12:53:30.273Z,1016.05
2017-09-21T12:54:39.117Z,1016.1
2017-09-21T12:55:47.955Z,1016.13
2017-09-21T12:56:56.793Z,1016.11
2017-09-21T12:58:05.632Z,1016.16
2017-09-21T12:59:14.468Z,1016.19
2017-09-21T13:00:23.307Z,1016.21
2017-09-21T13:01:32.150Z,1016.19
2017-09-21T13:02:40.995Z,1016.19
2017-09-21T13:03:49.830Z,1016.22
2017-09-21T13:04:58.666Z,1016.18
2017-09-21T13:06:07.502Z,1016.18
2017-09-21T13:07:16.341Z,1016.22
2017-09-21T13:08:25.183Z,1016.21
2017-09-21T13:09:34.019Z,1016.2
2017-09-21T13:10:42.855Z,1016.2
2017-09-21T13:11:51.693Z,1016.2
2017-09-21T13:13:00.864Z,1016.19
2017-09-21T13:14:09.701Z,1016.2
2017-09-21T13:15:18.552Z,1016.18
2017-09-21T13:16:27.389Z,1016.18
2017-09-21T13:17:36.226Z,1016.23
2017-09-21T13:18:45.063Z,1016.18
2017-09-21T13:19:54.239Z,1016.2
2017-09-21T13:21:03.072Z,1016.19
2017-09-21T13:22:11.913Z,1016.24
2017-09-21T13:23:20.746Z,1016.19
2017-09-21T13:24:29.584Z,1016.16
2017-09-21T13:25:38.419Z,1016.17
2017-09-21T13:26:47.261Z,1016.14
2017-09-21T13:27:56.097Z,1016.14
2017-09-21T13:29:04.936Z,1016.14
2017-09-21T13:30:13.772Z,1016.18
2017-09-21T13:31:22.608Z,1016.13
2017-09-21T13:32:31.446Z,1016.11
2017-09-21T13:33:40.282Z,1016.15
2017-09-21T13:34:49.121Z,1016.11
2017-09-21T13:35:57.962Z,1016.17
2017-09-21T13:37:06.797Z,1016.12
2017-09-21T13:38:15.638Z,1016.11
2017-09-21T13:39:24.474Z,1016.1
2017-09-21T13:40:33.313Z,1016.12
2017-09-21T13:41:42.153Z,1016.08
2017-09-21T13:42:50.986Z,1016.05
2017-09-21T13:43:59.831Z,1016.06
2017-09-21T13:45:08.689Z,1016.01
2017-09-21T13:46:17.507Z,1016.04
2017-09-21T13:47:26.342Z,1016.01
2017-09-21T13:48:35.184Z,1016.02
2017-09-21T13:49:44.024Z,1016.02
2017-09-21T13:50:53.199Z,1016
2017-09-21T13:52:02.044Z,1016.05
2017-09-21T13:53:10.881Z,1016.03
2017-09-21T13:54:19.717Z,1016.04
2017-09-21T13:55:28.557Z,1015.99
2017-09-21T13:56:37.394Z,1016.02